Aérodrome :
LOGIN :

S'inscrire | Disclaimer

   EN    FR    IT 

 










Légende :    VFR   VFR Marginal   IFR   IFR Intensif   IFR Très Intensif
Visi : 
Plafond : 
>= 8 km
>= 3000ft
5 à 8 km
1000 à 3000 ft
1500m à 5 km
500 à 1000 ft
800 à 1500m
200 à 500 ft
< 800m
< 200 ft
Symboles :   Orages  Brouillard  Fortes neiges  Fortes précipitations  Vent > 20 kt
SIGMETs :   Divers  Orages  Givrage  Turbulence  Onde Orograph.  Cendres Volcan.







- Altitude de l'aérodrome : 1020 ft
- Code IATA : ILZ


LZZI - Žilina

DERNIER METAR :
  • 221230Z VRB02KT 9999 -RA FEW043 BKN100 20/14 Q1026

METARs EXPIRÉS :
  • 221200Z VRB02KT 9999 -RA SCT036 BKN100 20/14 Q1026
  • 221130Z 05004KT 9999 -RA FEW036 BKN100 20/13 Q1026
  • 221100Z VRB02KT 9999 -RA FEW040 BKN100 20/13 Q1026
  • 221030Z 05006KT 020V080 9999 FEW043 BKN100 20/13 Q1026

TAF TAF LZZI
Valide du 22 à 12h jusqu'au 22 à 21h UTC


221100Z 2212/2221 04008KT 9999 FEW045 BKN100
TEMPO 2212/2218 06015KT -SHRA SCT040CB BKN050
PROB30
TEMPO 2212/2218 4000 TSRA
Pas de NOTAMs connus pour ce terrain.



MET'MAP, la Météo Aéronautique d'un coup d'oeil ! - Copyright ORBIFLY Décembre 2007 - Disclaimer

ORBIFLY MET'MAP TEAM :

Programmation & Développement : Alexandra Zaïnal
Conception & Développement : Baudouin d'Aumeries
Co-Programmation & Développement : Marc-Olivier Méhu
Soutien technique & logistique : Manuel Goepfert

Contact : metmap@orbifly.com




SOURCES & CREDITS :

   NOAA